Time,TemperatureF,DewpointF,PressureIn,WindDirection,WindDirectionDegrees,WindSpeedMPH,WindSpeedGustMPH,Humidity,HourlyPrecipIn,Conditions,Clouds,dailyrainin,SolarRadiationWatts/m^2,SoftwareType,DateUTC
2013-05-29 00:34:00,38.0,27.0,-100.00,South,173,1.0,3.0,65,-99.99,,,0.00,0.000000,,2013-05-29 07:34:00,
2013-05-29 01:32:00,33.0,24.0,-100.00,SE,135,0.0,4.0,68,-99.99,,,0.00,0.000000,,2013-05-29 08:32:00,
2013-05-29 02:42:00,30.0,23.0,-100.00,NE,46,0.0,2.0,75,-99.99,,,0.00,0.000000,,2013-05-29 09:42:00,
2013-05-29 02:52:00,30.0,23.0,-100.00,NE,46,0.0,2.0,75,-99.99,,,0.00,0.000000,,2013-05-29 09:52:00,
2013-05-29 03:33:00,28.0,21.0,-100.00,East,84,0.0,2.0,75,-99.99,,,0.00,0.000000,,2013-05-29 10:33:00,
2013-05-29 04:32:00,26.0,21.0,-100.00,South,178,0.0,2.0,82,-99.99,,,0.00,0.000000,,2013-05-29 11:32:00,
2013-05-29 05:42:00,26.0,22.0,-100.00,SSW,208,0.0,2.0,83,-99.99,,,0.00,0.000000,,2013-05-29 12:42:00,
2013-05-29 05:52:00,26.0,22.0,-100.00,SSW,208,0.0,2.0,83,-99.99,,,0.00,0.000000,,2013-05-29 12:52:00,
2013-05-29 06:32:00,35.0,25.0,-100.00,NE,54,0.0,2.0,66,-99.99,,,0.00,68.000000,,2013-05-29 13:32:00,
2013-05-29 06:42:00,35.0,25.0,-100.00,NE,54,0.0,2.0,66,-99.99,,,0.00,68.000000,,2013-05-29 13:42:00,
2013-05-29 06:53:00,35.0,25.0,-100.00,NE,54,0.0,2.0,66,-99.99,,,0.00,68.000000,,2013-05-29 13:53:00,
2013-05-29 07:01:00,35.0,25.0,-100.00,NE,54,0.0,2.0,66,-99.99,,,0.00,68.000000,,2013-05-29 14:01:00,
2013-05-29 07:11:00,35.0,25.0,-100.00,NE,54,0.0,2.0,66,-99.99,,,0.00,68.000000,,2013-05-29 14:11:00,
2013-05-29 07:32:00,53.0,31.0,-100.00,ENE,74,2.0,3.0,43,0.00,,,0.00,265.000000,,2013-05-29 14:32:00,
2013-05-29 08:01:00,53.0,31.0,-100.00,ENE,74,2.0,3.0,43,0.00,,,0.00,265.000000,,2013-05-29 15:01:00,
2013-05-29 08:11:00,53.0,31.0,-100.00,ENE,74,2.0,3.0,43,0.00,,,0.00,265.000000,,2013-05-29 15:11:00,
2013-05-29 08:33:00,60.0,25.0,-100.00,WNW,295,12.0,18.0,26,0.00,,,0.00,479.000000,,2013-05-29 15:33:00,
2013-05-29 08:42:00,60.0,25.0,-100.00,WNW,295,12.0,18.0,26,0.00,,,0.00,479.000000,,2013-05-29 15:42:00,
2013-05-29 08:53:00,60.0,25.0,-100.00,WNW,295,12.0,18.0,26,0.00,,,0.00,479.000000,,2013-05-29 15:53:00,
2013-05-29 09:03:00,60.0,25.0,-100.00,WNW,295,12.0,18.0,26,0.00,,,0.00,479.000000,,2013-05-29 16:03:00,
2013-05-29 09:12:00,60.0,25.0,-100.00,WNW,295,12.0,18.0,26,0.00,,,0.00,479.000000,,2013-05-29 16:12:00,
2013-05-29 09:33:00,62.0,24.0,-100.00,WNW,300,12.0,20.0,23,0.00,,,0.00,676.000000,,2013-05-29 16:33:00,
2013-05-29 09:42:00,62.0,24.0,-100.00,WNW,300,12.0,20.0,23,0.00,,,0.00,676.000000,,2013-05-29 16:42:00,
2013-05-29 09:52:00,62.0,24.0,-100.00,WNW,300,12.0,20.0,23,0.00,,,0.00,676.000000,,2013-05-29 16:52:00,
2013-05-29 10:02:00,62.0,24.0,-100.00,WNW,300,12.0,20.0,23,0.00,,,0.00,676.000000,,2013-05-29 17:02:00,
2013-05-29 10:12:00,62.0,24.0,-100.00,WNW,300,12.0,20.0,23,0.00,,,0.00,676.000000,,2013-05-29 17:12:00,
2013-05-29 10:32:00,65.0,26.0,-100.00,West,271,13.0,23.0,23,0.00,,,0.00,842.000000,,2013-05-29 17:32:00,
2013-05-29 10:43:00,65.0,26.0,-100.00,West,271,13.0,23.0,23,0.00,,,0.00,842.000000,,2013-05-29 17:43:00,
2013-05-29 10:52:00,65.0,26.0,-100.00,West,271,13.0,23.0,23,0.00,,,0.00,842.000000,,2013-05-29 17:52:00,
2013-05-29 11:01:00,65.0,26.0,-100.00,West,271,13.0,23.0,23,0.00,,,0.00,842.000000,,2013-05-29 18:01:00,
2013-05-29 11:13:00,65.0,26.0,-100.00,West,271,13.0,23.0,23,0.00,,,0.00,842.000000,,2013-05-29 18:13:00,
2013-05-29 11:42:00,68.0,27.0,-100.00,West,268,19.0,32.0,21,0.00,,,0.00,970.000000,,2013-05-29 18:42:00,
2013-05-29 11:52:00,68.0,27.0,-100.00,West,268,19.0,32.0,21,0.00,,,0.00,970.000000,,2013-05-29 18:52:00,
2013-05-29 12:01:00,68.0,27.0,-100.00,West,268,19.0,32.0,21,0.00,,,0.00,970.000000,,2013-05-29 19:01:00,
2013-05-29 12:11:00,68.0,27.0,-100.00,West,268,19.0,32.0,21,0.00,,,0.00,970.000000,,2013-05-29 19:11:00,
2013-05-29 12:44:00,69.0,26.0,-100.00,West,272,14.0,31.0,20,0.00,,,0.00,1004.000000,,2013-05-29 19:44:00,
2013-05-29 12:53:00,69.0,26.0,-100.00,West,272,14.0,31.0,20,0.00,,,0.00,1004.000000,,2013-05-29 19:53:00,
2013-05-29 13:02:00,69.0,26.0,-100.00,West,272,14.0,31.0,20,0.00,,,0.00,1004.000000,,2013-05-29 20:02:00,
2013-05-29 13:11:00,69.0,26.0,-100.00,West,272,14.0,31.0,20,0.00,,,0.00,1004.000000,,2013-05-29 20:11:00,
2013-05-29 13:33:00,70.0,26.0,-100.00,West,274,15.0,37.0,19,0.00,,,0.00,1068.000000,,2013-05-29 20:33:00,
2013-05-29 13:42:00,70.0,26.0,-100.00,West,274,15.0,37.0,19,0.00,,,0.00,1068.000000,,2013-05-29 20:42:00,
2013-05-29 13:52:00,70.0,26.0,-100.00,West,274,15.0,37.0,19,0.00,,,0.00,1068.000000,,2013-05-29 20:52:00,
2013-05-29 14:02:00,70.0,26.0,-100.00,West,274,15.0,37.0,19,0.00,,,0.00,1068.000000,,2013-05-29 21:02:00,
2013-05-29 14:12:00,70.0,26.0,-100.00,West,274,15.0,37.0,19,0.00,,,0.00,1068.000000,,2013-05-29 21:12:00,
2013-05-29 14:44:00,72.0,27.0,-100.00,WNW,288,16.0,32.0,19,0.00,,,0.00,694.000000,,2013-05-29 21:44:00,
2013-05-29 14:53:00,72.0,27.0,-100.00,WNW,288,16.0,32.0,19,0.00,,,0.00,694.000000,,2013-05-29 21:53:00,
2013-05-29 15:03:00,72.0,27.0,-100.00,WNW,288,16.0,32.0,19,0.00,,,0.00,694.000000,,2013-05-29 22:03:00,
2013-05-29 15:12:00,72.0,27.0,-100.00,WNW,288,16.0,32.0,19,0.00,,,0.00,694.000000,,2013-05-29 22:12:00,
2013-05-29 15:34:00,71.0,27.0,-100.00,West,264,16.0,33.0,19,0.00,,,0.00,814.000000,,2013-05-29 22:34:00,
2013-05-29 15:42:00,71.0,27.0,-100.00,West,264,16.0,33.0,19,0.00,,,0.00,814.000000,,2013-05-29 22:42:00,
2013-05-29 15:53:00,71.0,27.0,-100.00,West,264,16.0,33.0,19,0.00,,,0.00,814.000000,,2013-05-29 22:53:00,
2013-05-29 16:02:00,71.0,27.0,-100.00,West,264,16.0,33.0,19,0.00,,,0.00,814.000000,,2013-05-29 23:02:00,
2013-05-29 16:12:00,71.0,27.0,-100.00,West,264,16.0,33.0,19,0.00,,,0.00,814.000000,,2013-05-29 23:12:00,
2013-05-29 16:33:00,72.0,26.0,-100.00,West,261,15.0,28.0,18,0.00,,,0.00,648.000000,,2013-05-29 23:33:00,
2013-05-29 16:42:00,72.0,26.0,-100.00,West,261,15.0,28.0,18,0.00,,,0.00,648.000000,,2013-05-29 23:42:00,
2013-05-29 16:53:00,72.0,26.0,-100.00,West,261,15.0,28.0,18,0.00,,,0.00,648.000000,,2013-05-29 23:53:00,
2013-05-29 17:01:00,72.0,26.0,-100.00,West,261,15.0,28.0,18,0.00,,,0.00,648.000000,,2013-05-30 00:01:00,
2013-05-29 17:11:00,72.0,26.0,-100.00,West,261,15.0,28.0,18,0.00,,,0.00,648.000000,,2013-05-30 00:11:00,
2013-05-29 18:32:00,70.0,26.0,-100.00,WSW,247,13.0,24.0,19,-99.99,,,0.00,309.000000,,2013-05-30 01:32:00,
2013-05-29 18:42:00,70.0,26.0,-100.00,WSW,247,13.0,24.0,19,-99.99,,,0.00,309.000000,,2013-05-30 01:42:00,
2013-05-29 18:52:00,70.0,26.0,-100.00,WSW,247,13.0,24.0,19,-99.99,,,0.00,309.000000,,2013-05-30 01:52:00,
2013-05-29 19:01:00,70.0,26.0,-100.00,WSW,247,13.0,24.0,19,-99.99,,,0.00,309.000000,,2013-05-30 02:01:00,
2013-05-29 19:11:00,70.0,26.0,-100.00,WSW,247,13.0,24.0,19,-99.99,,,0.00,309.000000,,2013-05-30 02:11:00,
2013-05-29 20:01:00,66.0,25.0,-100.00,West,260,12.0,22.0,21,0.00,,,0.00,117.000000,,2013-05-30 03:01:00,
2013-05-29 20:11:00,66.0,25.0,-100.00,West,260,12.0,22.0,21,0.00,,,0.00,117.000000,,2013-05-30 03:11:00,
2013-05-29 20:33:00,62.0,25.0,-100.00,WSW,248,8.0,20.0,24,0.00,,,0.00,5.000000,,2013-05-30 03:33:00,
2013-05-29 20:43:00,62.0,25.0,-100.00,WSW,248,8.0,20.0,24,0.00,,,0.00,5.000000,,2013-05-30 03:43:00,
2013-05-29 20:53:00,62.0,25.0,-100.00,WSW,248,8.0,20.0,24,0.00,,,0.00,5.000000,,2013-05-30 03:53:00,
2013-05-29 21:02:00,62.0,25.0,-100.00,WSW,248,8.0,20.0,24,0.00,,,0.00,5.000000,,2013-05-30 04:02:00,
2013-05-29 21:12:00,62.0,25.0,-100.00,WSW,248,8.0,20.0,24,0.00,,,0.00,5.000000,,2013-05-30 04:12:00,
2013-05-29 21:33:00,59.0,25.0,-100.00,WSW,249,6.0,14.0,27,0.00,,,0.00,0.000000,,2013-05-30 04:33:00,
2013-05-29 21:42:00,59.0,25.0,-100.00,WSW,249,6.0,14.0,27,0.00,,,0.00,0.000000,,2013-05-30 04:42:00,
2013-05-29 21:53:00,59.0,25.0,-100.00,WSW,249,6.0,14.0,27,0.00,,,0.00,0.000000,,2013-05-30 04:53:00,
2013-05-29 22:02:00,59.0,25.0,-100.00,WSW,249,6.0,14.0,27,0.00,,,0.00,0.000000,,2013-05-30 05:02:00,
2013-05-29 22:12:00,59.0,25.0,-100.00,WSW,249,6.0,14.0,27,0.00,,,0.00,0.000000,,2013-05-30 05:12:00,
2013-05-29 22:32:00,56.0,25.0,-100.00,WSW,244,5.0,8.0,30,0.00,,,0.00,0.000000,,2013-05-30 05:32:00,
2013-05-29 22:43:00,56.0,25.0,-100.00,WSW,244,5.0,8.0,30,0.00,,,0.00,0.000000,,2013-05-30 05:43:00,
2013-05-29 22:52:00,56.0,25.0,-100.00,WSW,244,5.0,8.0,30,0.00,,,0.00,0.000000,,2013-05-30 05:52:00,
2013-05-29 23:01:00,56.0,25.0,-100.00,WSW,244,5.0,8.0,30,0.00,,,0.00,0.000000,,2013-05-30 06:01:00,
2013-05-29 23:12:00,56.0,25.0,-100.00,WSW,244,5.0,8.0,30,0.00,,,0.00,0.000000,,2013-05-30 06:12:00,
2013-05-29 23:32:00,56.0,27.0,-100.00,SW,232,5.0,12.0,33,0.00,,,0.00,0.000000,,2013-05-30 06:32:00,
2013-05-29 23:42:00,56.0,27.0,-100.00,SW,232,5.0,12.0,33,0.00,,,0.00,0.000000,,2013-05-30 06:42:00,
2013-05-29 23:52:00,56.0,27.0,-100.00,SW,232,5.0,12.0,33,0.00,,,0.00,0.000000,,2013-05-30 06:52:00,